createdAt,value
2023-03-12T00:00:08.513Z,62.24
2023-03-12T00:02:35.352Z,61.72
2023-03-12T00:05:02.122Z,62.45
2023-03-12T00:07:36.114Z,62.00
2023-03-12T00:10:04.140Z,62.67
2023-03-12T00:12:30.712Z,62.83
2023-03-12T00:14:57.434Z,62.17
2023-03-12T00:17:24.142Z,61.94
2023-03-12T00:19:53.880Z,61.96
2023-03-12T00:22:23.514Z,61.69
2023-03-12T00:24:50.745Z,62.55
2023-03-12T00:27:17.359Z,62.65
2023-03-12T00:29:44.024Z,62.16
2023-03-12T00:32:10.597Z,62.34
2023-03-12T00:34:37.255Z,62.83
2023-03-12T00:37:03.867Z,62.55
2023-03-12T00:39:30.448Z,62.96
2023-03-12T00:41:57.104Z,62.57
2023-03-12T00:44:23.815Z,62.09
2023-03-12T00:46:50.378Z,62.07
2023-03-12T00:49:19.785Z,62.47
2023-03-12T00:51:48.159Z,61.60
2023-03-12T00:54:14.865Z,61.68
2023-03-12T00:56:41.486Z,61.61
2023-03-12T00:59:08.286Z,61.82
2023-03-12T01:01:34.811Z,61.76
2023-03-12T01:04:01.468Z,61.32
2023-03-12T01:06:28.092Z,61.90
2023-03-12T01:08:55.604Z,61.58
2023-03-12T01:11:22.884Z,61.87
2023-03-12T01:13:49.742Z,62.09
2023-03-12T01:16:16.884Z,62.02
2023-03-12T01:18:43.552Z,62.09
2023-03-12T01:23:54.804Z,62.55
2023-03-12T01:26:24.302Z,62.08
2023-03-12T01:28:51.166Z,62.33
2023-03-12T01:31:18.971Z,62.41
2023-03-12T01:33:48.365Z,62.72
2023-03-12T01:36:23.232Z,62.43
2023-03-12T01:38:54.090Z,62.58
2023-03-12T01:41:21.415Z,62.67
2023-03-12T01:43:48.546Z,62.83
2023-03-12T01:46:34.994Z,63.13
2023-03-12T01:49:25.278Z,62.67
2023-03-12T01:52:13.095Z,62.31
2023-03-12T01:54:49.601Z,62.62
2023-03-12T01:57:18.916Z,62.56
2023-03-12T01:59:49.859Z,63.01
2023-03-12T02:02:18.690Z,63.47
2023-03-12T02:04:54.827Z,63.63
2023-03-12T02:07:21.564Z,64.48
2023-03-12T02:09:49.410Z,64.35
2023-03-12T02:12:17.119Z,64.49
2023-03-12T02:14:43.965Z,64.46
2023-03-12T02:17:13.855Z,64.28
2023-03-12T02:19:46.757Z,64.03
2023-03-12T02:22:16.731Z,63.86
2023-03-12T02:25:03.961Z,63.84
2023-03-12T02:27:32.732Z,64.05
2023-03-12T02:29:59.727Z,63.35
2023-03-12T02:32:28.433Z,63.18
2023-03-12T02:34:56.603Z,63.10
2023-03-12T02:37:23.276Z,62.72
2023-03-12T02:39:54.997Z,62.12
2023-03-12T02:42:22.847Z,63.08
2023-03-12T02:44:49.687Z,62.38
2023-03-12T02:47:19.714Z,63.15
2023-03-12T02:49:52.296Z,63.28
2023-03-12T02:52:21.274Z,61.80
2023-03-12T02:54:48.742Z,63.01
2023-03-12T02:57:16.934Z,62.53
2023-03-12T02:59:43.542Z,62.45
2023-03-12T03:02:12.670Z,61.46
2023-03-12T03:04:39.946Z,61.14
2023-03-12T03:07:06.907Z,61.29
2023-03-12T03:09:33.510Z,62.43
2023-03-12T03:12:04.063Z,62.73
2023-03-12T03:14:32.843Z,62.43
2023-03-12T03:16:59.519Z,62.15
2023-03-12T03:19:26.835Z,62.03
2023-03-12T03:21:53.450Z,62.30
2023-03-12T03:24:20.208Z,62.69
2023-03-12T03:26:46.780Z,62.55
2023-03-12T03:29:13.452Z,62.92
2023-03-12T03:31:40.153Z,62.44
2023-03-12T03:34:06.827Z,62.35
2023-03-12T03:36:33.393Z,62.78
2023-03-12T03:39:05.296Z,62.93
2023-03-12T03:41:35.613Z,62.28
2023-03-12T03:44:04.637Z,62.67
2023-03-12T03:46:32.960Z,62.80
2023-03-12T03:49:11.129Z,62.42
2023-03-12T03:51:42.659Z,61.82
2023-03-12T03:56:52.945Z,62.10
2023-03-12T03:59:19.635Z,62.02
2023-03-12T04:01:49.824Z,62.03
2023-03-12T04:04:16.558Z,62.68
2023-03-12T04:06:43.228Z,62.53
2023-03-12T04:09:10.223Z,62.81
2023-03-12T04:11:38.585Z,63.08
2023-03-12T04:14:07.010Z,63.68
2023-03-12T04:16:35.209Z,63.59
2023-03-12T04:19:02.788Z,63.26
2023-03-12T04:21:29.356Z,63.38
2023-03-12T04:23:56.255Z,63.70
2023-03-12T04:26:27.413Z,63.44
2023-03-12T04:28:55.745Z,63.39
2023-03-12T04:31:24.622Z,63.40
2023-03-12T04:33:51.377Z,63.50
2023-03-12T04:36:20.324Z,64.50
2023-03-12T04:38:48.917Z,64.15
2023-03-12T04:41:18.424Z,63.43
2023-03-12T04:44:08.162Z,63.36
2023-03-12T04:46:36.421Z,63.61
2023-03-12T04:49:03.802Z,63.61
2023-03-12T04:51:33.239Z,63.89
2023-03-12T04:54:02.175Z,63.70
2023-03-12T04:56:29.226Z,63.74
2023-03-12T04:58:55.990Z,63.42
2023-03-12T05:01:30.934Z,62.49
2023-03-12T05:03:58.029Z,62.03
2023-03-12T05:06:25.672Z,61.45
2023-03-12T05:08:53.278Z,61.67
2023-03-12T05:11:20.937Z,61.60
2023-03-12T05:13:47.794Z,61.18
2023-03-12T05:16:15.127Z,61.52
2023-03-12T05:18:42.159Z,61.71
2023-03-12T05:21:15.750Z,61.46
2023-03-12T05:23:43.255Z,61.58
2023-03-12T05:26:18.423Z,61.54
2023-03-12T05:28:45.233Z,61.43
2023-03-12T05:31:17.734Z,61.20
2023-03-12T05:33:45.041Z,60.84
2023-03-12T05:36:15.121Z,61.02
2023-03-12T05:38:43.815Z,60.91
2023-03-12T05:41:19.007Z,61.03
2023-03-12T05:43:46.176Z,60.62
2023-03-12T05:46:12.908Z,61.25
2023-03-12T05:48:39.983Z,61.01
2023-03-12T05:51:09.342Z,61.02
2023-03-12T05:53:36.581Z,60.54
2023-03-12T05:56:11.703Z,60.58
2023-03-12T05:58:38.741Z,60.45
2023-03-12T06:01:11.794Z,60.40
2023-03-12T06:03:43.123Z,60.30
2023-03-12T06:06:10.291Z,59.85
2023-03-12T06:08:37.036Z,60.21
2023-03-12T06:11:03.745Z,60.23
2023-03-12T06:13:30.569Z,59.98
2023-03-12T06:16:05.796Z,58.83
2023-03-12T06:18:33.408Z,58.99
2023-03-12T06:21:16.718Z,59.10
2023-03-12T06:23:45.032Z,59.41
2023-03-12T06:26:16.352Z,60.11
2023-03-12T06:28:44.889Z,60.27
2023-03-12T06:31:14.153Z,60.28
2023-03-12T06:33:41.155Z,60.09
2023-03-12T06:36:08.666Z,59.87
2023-03-12T06:38:36.134Z,60.05
2023-03-12T06:41:04.786Z,59.53
2023-03-12T06:43:32.779Z,58.69
2023-03-12T06:46:00.223Z,59.53
2023-03-12T06:48:27.904Z,58.75
2023-03-12T06:50:56.694Z,58.10
2023-03-12T06:53:23.555Z,57.77
2023-03-12T06:55:51.013Z,58.63
2023-03-12T06:58:20.525Z,58.02
2023-03-12T07:00:47.135Z,59.32
2023-03-12T07:03:13.891Z,59.87
2023-03-12T07:05:43.400Z,59.95
2023-03-12T07:08:10.075Z,60.01
2023-03-12T07:10:36.632Z,60.33
2023-03-12T07:13:03.396Z,60.95
2023-03-12T07:15:29.946Z,59.93
2023-03-12T07:17:59.563Z,59.46
2023-03-12T07:20:27.641Z,59.01
2023-03-12T07:22:56.576Z,58.62
2023-03-12T07:25:23.115Z,57.99
2023-03-12T07:27:49.761Z,58.08
2023-03-12T07:30:16.428Z,57.97
2023-03-12T07:32:43.107Z,57.65
2023-03-12T07:35:09.954Z,57.62
2023-03-12T07:37:36.555Z,58.33
2023-03-12T07:40:07.344Z,57.12
2023-03-12T07:42:34.454Z,57.04
2023-03-12T07:45:01.052Z,56.88
2023-03-12T07:47:29.838Z,56.23
2023-03-12T07:49:56.520Z,56.20
2023-03-12T07:52:23.742Z,55.38
2023-03-12T07:54:52.756Z,54.25
2023-03-12T07:57:22.676Z,52.25
2023-03-12T07:59:49.423Z,52.58
2023-03-12T08:02:18.987Z,52.57
2023-03-12T08:04:45.938Z,52.59
2023-03-12T08:07:12.707Z,52.89
2023-03-12T08:09:39.697Z,54.26
2023-03-12T08:12:07.254Z,54.33
2023-03-12T08:14:36.601Z,54.40
2023-03-12T08:17:03.189Z,53.88
2023-03-12T08:19:29.803Z,55.17
2023-03-12T08:22:00.399Z,54.61
2023-03-12T08:24:27.440Z,54.15
2023-03-12T08:26:56.846Z,52.94
2023-03-12T08:29:23.466Z,53.37
2023-03-12T08:32:04.201Z,52.08
2023-03-12T08:34:31.846Z,52.89
2023-03-12T08:36:58.414Z,52.21
2023-03-12T08:39:25.070Z,52.26
2023-03-12T08:41:58.754Z,51.72
2023-03-12T08:44:25.497Z,50.05
2023-03-12T08:46:52.778Z,49.12
2023-03-12T08:49:21.011Z,50.25
2023-03-12T08:51:47.628Z,50.20
2023-03-12T08:54:14.250Z,49.48
2023-03-12T08:56:43.272Z,50.43
2023-03-12T08:59:10.656Z,46.81
2023-03-12T09:01:37.692Z,48.80
2023-03-12T09:06:45.303Z,47.54
2023-03-12T09:09:11.920Z,47.81
2023-03-12T09:11:45.406Z,46.61
2023-03-12T09:16:59.547Z,45.61
2023-03-12T09:19:26.161Z,44.57
2023-03-12T09:21:52.824Z,44.99
2023-03-12T09:24:19.773Z,45.37
2023-03-12T09:26:47.580Z,46.28
2023-03-12T09:29:14.192Z,45.91
2023-03-12T09:31:40.854Z,46.35
2023-03-12T09:34:07.524Z,46.71
2023-03-12T09:36:34.248Z,47.12
2023-03-12T09:39:00.893Z,46.15
2023-03-12T09:41:32.815Z,45.68
2023-03-12T09:44:01.823Z,46.23
2023-03-12T09:46:37.069Z,45.00
2023-03-12T09:49:06.482Z,44.58
2023-03-12T09:51:39.147Z,44.74
2023-03-12T09:54:07.463Z,45.85
2023-03-12T09:56:34.174Z,45.22
2023-03-12T09:59:03.964Z,44.24
2023-03-12T10:01:33.567Z,43.65
2023-03-12T10:04:12.530Z,44.24
2023-03-12T10:06:48.110Z,42.92
2023-03-12T10:09:23.933Z,42.93
2023-03-12T10:11:55.814Z,43.25
2023-03-12T10:14:24.195Z,44.02
2023-03-12T10:17:10.154Z,44.45
2023-03-12T10:19:55.360Z,45.66
2023-03-12T10:22:37.076Z,43.22
2023-03-12T10:25:18.745Z,43.98
2023-03-12T10:27:45.449Z,45.81
2023-03-12T10:30:24.052Z,45.92
2023-03-12T10:32:59.666Z,45.69
2023-03-12T10:35:30.592Z,45.80
2023-03-12T10:37:58.938Z,45.31
2023-03-12T10:40:36.585Z,45.22
2023-03-12T10:43:05.748Z,45.17
2023-03-12T10:45:52.958Z,43.34
2023-03-12T10:48:24.162Z,46.13
2023-03-12T10:51:07.865Z,45.30
2023-03-12T10:53:39.452Z,46.82
2023-03-12T10:56:06.107Z,47.15
2023-03-12T10:58:36.140Z,45.89
2023-03-12T11:01:06.543Z,45.77
2023-03-12T11:03:34.004Z,46.11
2023-03-12T11:06:02.321Z,48.19
2023-03-12T11:08:30.551Z,47.86
2023-03-12T11:10:58.352Z,47.33
2023-03-12T11:13:32.886Z,48.22
2023-03-12T11:16:01.289Z,49.30
2023-03-12T11:18:27.901Z,49.57
2023-03-12T11:21:14.774Z,48.42
2023-03-12T11:23:45.039Z,48.65
2023-03-12T11:26:19.493Z,48.02
2023-03-12T11:28:51.230Z,47.99
2023-03-12T11:31:27.304Z,48.41
2023-03-12T11:33:57.724Z,48.43
2023-03-12T11:36:27.417Z,48.32
2023-03-12T11:38:59.420Z,48.96
2023-03-12T11:41:53.250Z,48.65
2023-03-12T11:44:24.507Z,48.79
2023-03-12T11:46:51.148Z,49.73
2023-03-12T11:49:17.740Z,50.40
2023-03-12T11:51:47.389Z,50.88
2023-03-12T11:54:16.889Z,50.85
2023-03-12T11:56:52.684Z,49.51
2023-03-12T11:59:19.306Z,50.41
2023-03-12T12:02:00.550Z,51.04
2023-03-12T12:04:27.156Z,50.60
2023-03-12T12:07:05.756Z,49.95
2023-03-12T12:09:50.495Z,50.39
2023-03-12T12:12:49.763Z,50.77
2023-03-12T12:15:31.391Z,52.04
2023-03-12T12:18:16.930Z,51.82
2023-03-12T12:20:48.039Z,50.68
2023-03-12T12:23:14.603Z,50.06
2023-03-12T12:25:49.653Z,50.75
2023-03-12T12:28:35.329Z,50.21
2023-03-12T12:31:09.354Z,49.64
2023-03-12T12:33:50.584Z,50.03
2023-03-12T12:36:20.428Z,50.43
2023-03-12T12:38:50.760Z,50.22
2023-03-12T12:41:17.379Z,50.91
2023-03-12T12:44:04.358Z,50.71
2023-03-12T12:46:43.459Z,51.01
2023-03-12T12:49:12.298Z,51.14
2023-03-12T12:51:44.733Z,51.03
2023-03-12T12:54:12.872Z,51.13
2023-03-12T12:56:54.243Z,53.57
2023-03-12T12:59:42.736Z,54.88
2023-03-12T13:02:30.945Z,55.43
2023-03-12T13:05:01.432Z,57.84
2023-03-12T13:07:28.274Z,57.71
2023-03-12T13:12:49.585Z,59.22
2023-03-12T13:15:39.924Z,59.39
2023-03-12T13:18:18.403Z,59.68
2023-03-12T13:21:01.152Z,59.84
2023-03-12T13:23:30.510Z,59.50
2023-03-12T13:26:15.539Z,60.59
2023-03-12T13:29:06.035Z,60.18
2023-03-12T13:31:37.273Z,60.42
2023-03-12T13:34:08.231Z,60.56
2023-03-12T13:36:38.210Z,60.40
2023-03-12T13:39:07.735Z,60.65
2023-03-12T13:41:36.649Z,61.35
2023-03-12T13:44:22.287Z,61.25
2023-03-12T13:46:59.175Z,61.00
2023-03-12T13:49:26.641Z,61.37
2023-03-12T13:52:10.032Z,61.32
2023-03-12T13:54:41.784Z,62.42
2023-03-12T13:57:20.894Z,62.29
2023-03-12T13:59:49.688Z,62.14
2023-03-12T14:02:32.608Z,61.89
2023-03-12T14:05:04.161Z,62.03
2023-03-12T14:07:30.754Z,62.81
2023-03-12T14:10:19.176Z,63.50
2023-03-12T14:12:54.636Z,63.64
2023-03-12T14:15:21.264Z,64.31
2023-03-12T14:17:54.589Z,64.42
2023-03-12T14:20:24.023Z,66.22
2023-03-12T14:22:52.974Z,65.88
2023-03-12T14:25:19.831Z,66.31
2023-03-12T14:27:47.773Z,66.98
2023-03-12T14:30:17.482Z,67.71
2023-03-12T14:32:46.126Z,67.69
2023-03-12T14:35:12.840Z,67.76
2023-03-12T14:37:44.574Z,68.50
2023-03-12T14:40:34.651Z,70.20
2023-03-12T14:43:01.612Z,72.11
2023-03-12T14:45:28.264Z,73.51
2023-03-12T14:47:58.641Z,73.87
2023-03-12T14:50:27.713Z,74.97
2023-03-12T14:52:58.076Z,74.28
2023-03-12T14:55:26.192Z,73.30
2023-03-12T14:58:05.854Z,73.11
2023-03-12T15:00:33.560Z,74.43
2023-03-12T15:03:03.208Z,75.03
2023-03-12T15:05:30.106Z,77.12
2023-03-12T15:08:01.025Z,75.79
2023-03-12T15:10:29.304Z,76.39
2023-03-12T15:13:04.434Z,77.24
2023-03-12T15:15:31.013Z,76.70
2023-03-12T15:17:57.993Z,76.59
2023-03-12T15:20:33.508Z,77.44
2023-03-12T15:23:02.274Z,77.49
2023-03-12T15:25:32.027Z,78.34
2023-03-12T15:28:06.940Z,78.46
2023-03-12T15:30:34.465Z,79.13
2023-03-12T15:33:23.757Z,80.18
2023-03-12T15:36:05.070Z,80.28
2023-03-12T15:38:33.554Z,79.30
2023-03-12T15:41:03.567Z,79.95
2023-03-12T15:43:30.983Z,81.42
2023-03-12T15:46:02.304Z,81.68
2023-03-12T15:48:29.138Z,82.67
2023-03-12T15:50:55.753Z,84.13
2023-03-12T15:53:23.135Z,83.97
2023-03-12T15:56:02.067Z,83.78
2023-03-12T15:58:41.751Z,83.72
2023-03-12T16:01:08.426Z,84.58
2023-03-12T16:03:35.346Z,83.98
2023-03-12T16:06:01.962Z,84.78
2023-03-12T16:08:42.823Z,85.48
2023-03-12T16:11:14.682Z,84.73
2023-03-12T16:13:42.770Z,83.12
2023-03-12T16:16:13.098Z,82.32
2023-03-12T16:18:40.123Z,82.71
2023-03-12T16:21:06.936Z,83.25
2023-03-12T16:23:33.886Z,86.40
2023-03-12T16:26:00.786Z,84.58
2023-03-12T16:28:27.632Z,84.42
2023-03-12T16:30:54.531Z,83.23
2023-03-12T16:33:22.961Z,83.79
2023-03-12T16:35:51.813Z,83.61
2023-03-12T16:38:18.785Z,83.89
2023-03-12T16:40:49.098Z,84.36
2023-03-12T16:43:18.459Z,83.59
2023-03-12T16:45:46.989Z,85.07
2023-03-12T16:48:15.512Z,85.43
2023-03-12T16:50:45.882Z,85.74
2023-03-12T16:53:12.485Z,85.90
2023-03-12T16:55:59.791Z,85.48
2023-03-12T16:58:27.347Z,86.48
2023-03-12T17:00:54.508Z,87.35
2023-03-12T17:03:40.213Z,88.85
2023-03-12T17:06:07.412Z,88.07
2023-03-12T17:08:35.940Z,87.96
2023-03-12T17:11:02.662Z,90.06
2023-03-12T17:13:32.169Z,88.58
2023-03-12T17:15:58.913Z,88.54
2023-03-12T17:18:25.594Z,89.04
2023-03-12T17:20:52.197Z,88.25
2023-03-12T17:23:19.577Z,90.34
2023-03-12T17:25:49.053Z,89.22
2023-03-12T17:28:16.175Z,88.81
2023-03-12T17:30:43.544Z,88.60
2023-03-12T17:33:12.099Z,89.49
2023-03-12T17:35:39.839Z,88.72
2023-03-12T17:38:06.713Z,89.79
2023-03-12T17:40:33.417Z,89.50
2023-03-12T17:42:59.957Z,89.26
2023-03-12T17:45:27.599Z,89.16
2023-03-12T17:47:54.213Z,88.73
2023-03-12T17:50:21.604Z,88.02
2023-03-12T17:52:48.158Z,87.72
2023-03-12T17:55:14.881Z,88.40
2023-03-12T17:57:42.683Z,88.94
2023-03-12T18:00:12.814Z,88.71
2023-03-12T18:02:40.794Z,88.26
2023-03-12T18:05:11.363Z,87.67
2023-03-12T18:07:38.694Z,87.90
2023-03-12T18:10:06.587Z,88.98
2023-03-12T18:12:34.684Z,88.72
2023-03-12T18:15:02.565Z,87.39
2023-03-12T18:17:29.285Z,88.83
2023-03-12T18:19:59.071Z,88.69
2023-03-12T18:22:25.723Z,89.81
2023-03-12T18:24:52.361Z,89.08
2023-03-12T18:27:21.428Z,88.58
2023-03-12T18:29:48.420Z,89.40
2023-03-12T18:32:15.049Z,90.54
2023-03-12T18:34:42.468Z,89.65
2023-03-12T18:37:09.167Z,87.62
2023-03-12T18:39:35.786Z,89.14
2023-03-12T18:42:02.410Z,88.94
2023-03-12T18:44:30.527Z,88.18
2023-03-12T18:46:57.291Z,87.16
2023-03-12T18:49:23.905Z,87.27
2023-03-12T18:51:56.136Z,87.13
2023-03-12T18:54:24.695Z,87.61
2023-03-12T18:56:54.758Z,87.93
2023-03-12T18:59:21.514Z,88.00
2023-03-12T19:01:48.221Z,88.02
2023-03-12T19:04:18.748Z,87.25
2023-03-12T19:06:51.644Z,87.26
2023-03-12T19:09:26.043Z,87.25
2023-03-12T19:11:55.023Z,86.34
2023-03-12T19:14:21.641Z,86.17
2023-03-12T19:16:48.299Z,86.50
2023-03-12T19:19:15.012Z,87.33
2023-03-12T19:21:41.682Z,87.03
2023-03-12T19:24:08.533Z,87.05
2023-03-12T19:26:35.258Z,86.22
2023-03-12T19:29:01.861Z,87.37
2023-03-12T19:31:28.683Z,87.10
2023-03-12T19:33:57.786Z,86.57
2023-03-12T19:36:26.766Z,86.79
2023-03-12T19:38:55.694Z,86.71
2023-03-12T19:41:24.679Z,85.80
2023-03-12T19:43:51.252Z,85.24
2023-03-12T19:46:17.969Z,85.44
2023-03-12T19:48:44.600Z,85.83
2023-03-12T19:51:11.487Z,86.04
2023-03-12T19:53:38.520Z,85.67
2023-03-12T19:56:05.388Z,85.25
2023-03-12T19:58:32.051Z,85.36
2023-03-12T20:00:59.725Z,85.15
2023-03-12T20:03:26.999Z,84.17
2023-03-12T20:05:53.969Z,84.26
2023-03-12T20:08:22.473Z,85.31
2023-03-12T20:10:49.565Z,85.56
2023-03-12T20:13:17.847Z,85.58
2023-03-12T20:15:46.886Z,85.38
2023-03-12T20:18:14.212Z,85.83
2023-03-12T20:20:41.617Z,85.89
2023-03-12T20:23:08.563Z,85.65
2023-03-12T20:25:44.081Z,85.30
2023-03-12T20:28:16.037Z,85.33
2023-03-12T20:30:42.702Z,85.98
2023-03-12T20:33:09.468Z,86.33
2023-03-12T20:35:36.290Z,85.77
2023-03-12T20:38:02.933Z,84.58
2023-03-12T20:40:31.861Z,85.71
2023-03-12T20:42:58.582Z,85.35
2023-03-12T20:45:25.288Z,84.78
2023-03-12T20:47:53.847Z,83.52
2023-03-12T20:50:20.516Z,84.14
2023-03-12T20:52:47.125Z,84.18
2023-03-12T20:55:13.751Z,84.93
2023-03-12T20:57:40.323Z,85.93
2023-03-12T21:00:07.551Z,84.67
2023-03-12T21:02:34.453Z,83.81
2023-03-12T21:05:01.065Z,84.54
2023-03-12T21:07:30.524Z,84.77
2023-03-12T21:10:00.056Z,84.44
2023-03-12T21:12:26.682Z,84.00
2023-03-12T21:14:53.399Z,84.19
2023-03-12T21:17:20.776Z,84.01
2023-03-12T21:19:47.291Z,84.16
2023-03-12T21:22:14.650Z,83.76
2023-03-12T21:24:41.243Z,83.04
2023-03-12T21:27:13.581Z,83.48
2023-03-12T21:29:40.229Z,82.67
2023-03-12T21:32:08.927Z,82.88
2023-03-12T21:34:36.765Z,83.74
2023-03-12T21:37:03.353Z,83.59
2023-03-12T21:39:29.949Z,83.60
2023-03-12T21:41:56.495Z,83.55
2023-03-12T21:44:25.252Z,82.97
2023-03-12T21:46:54.603Z,82.95
2023-03-12T21:49:21.378Z,81.91
2023-03-12T21:51:47.977Z,81.95
2023-03-12T21:54:14.634Z,81.86
2023-03-12T21:56:41.827Z,81.56
2023-03-12T21:59:08.767Z,81.05
2023-03-12T22:01:35.351Z,81.36
2023-03-12T22:04:03.268Z,81.35
2023-03-12T22:06:29.901Z,80.32
2023-03-12T22:08:56.524Z,80.25
2023-03-12T22:11:23.139Z,80.26
2023-03-12T22:13:49.796Z,80.90
2023-03-12T22:16:16.885Z,81.34
2023-03-12T22:18:45.197Z,80.54
2023-03-12T22:21:19.247Z,80.04
2023-03-12T22:23:48.031Z,81.40
2023-03-12T22:29:04.760Z,81.06
2023-03-12T22:31:31.452Z,81.02
2023-03-12T22:33:58.084Z,80.08
2023-03-12T22:36:24.782Z,81.24
2023-03-12T22:38:51.642Z,81.77
2023-03-12T22:41:25.496Z,80.47
2023-03-12T22:43:53.338Z,80.19
2023-03-12T22:46:23.756Z,80.28
2023-03-12T22:48:54.852Z,79.95
2023-03-12T22:51:21.617Z,79.81
2023-03-12T22:53:48.183Z,79.35
2023-03-12T22:56:14.898Z,79.48
2023-03-12T22:58:41.493Z,78.81
2023-03-12T23:01:12.262Z,79.09
2023-03-12T23:03:42.887Z,78.58
2023-03-12T23:06:18.161Z,77.95
2023-03-12T23:08:47.475Z,78.89
2023-03-12T23:11:17.644Z,77.80
2023-03-12T23:13:50.364Z,77.74
2023-03-12T23:16:18.663Z,78.00
2023-03-12T23:18:45.722Z,77.74
2023-03-12T23:21:13.951Z,77.89
2023-03-12T23:23:42.238Z,78.17
2023-03-12T23:26:16.549Z,77.82
2023-03-12T23:28:43.371Z,76.84
2023-03-12T23:31:10.700Z,76.76
2023-03-12T23:33:37.839Z,77.17
2023-03-12T23:36:06.234Z,77.50
2023-03-12T23:38:35.155Z,77.33
2023-03-12T23:41:13.905Z,76.71
2023-03-12T23:43:44.361Z,77.22
2023-03-12T23:46:19.057Z,76.73
2023-03-12T23:48:46.028Z,76.82
2023-03-12T23:51:14.053Z,76.47
2023-03-12T23:53:44.092Z,76.62
2023-03-12T23:56:12.745Z,75.87
2023-03-12T23:58:39.439Z,76.58
